Startpagina
METAR-TAF:

METAR-TAF

Vliegvelden :

Internationale luchthaven Chongqing Jiangbei

Tsjoengking, China

breedte: 29-31N, lengte: 106-29E, hoogte: 351 m

Actueel weer

Dit bericht is 1 uur en het 8 minuten geleden gemaakt, om 12:00 UTC
Wind 4 kt uit het noordnoordwesten
Temperatuur 16°C
Vochtigheid 88%
Druk 1021 hPa
Zicht: 7000 m
Weinig wolken op 700 ft
Gebroken wolken op 2000 ft

METAR: ZUCK 211200Z 33002MPS 7000 FEW007 BKN020 16/14 Q1021 NOSIG

Tijdstip: 21:08 (13:08 UTC)

Verwachting

Dit bericht is 4 uur en het 3 minuten geleden gemaakt, om 09:05 UTC
Verwachting geldig van 21 om 12 UTC tot 22 om 12 UTC
Wind 6 kt uit het noorden
Zicht: 5000 m
Verspreide wolken op 1600 ft
Geheel bewolkt op 4000 ft
nevel
Tijdelijke
van 21 om 21 UTC tot 22 om 03 UTC
Zicht: 3500 m
lichte regen, nevel

TAF: ZUCK 210905Z 2112/2212 01003MPS 5000 BR SCT016 OVC040 TX17/2207Z TN14/2123Z TEMPO 2121/2203 3500 -RA BR

Waarnemingen en weersverwachtingen van meer dan 4000 vliegvelden (METAR en TAF).

De beschikbare stations zijn de gele en rode punten op de kaart.

Ga met uw muis naar het station om de naam te zien.

Klik dan om waarnemingen en weersverwachtingen te zien.

kaart wijzigen: klik op de groene knoppen met een zwart kruis om in te zoomen, op de groene knop met een streepje om uit te zoomen of op de groene pijlen voor aangrenzende kaarten.


METAR-TAF: